Time;durP1;ratioP1;P1;durP2;ratioP2;P2;SDS_P1;SDS_P2;PMS_P1;PMS_P2;Temp;Humidity;BMP_temperature;BMP_pressure;BME280_temperature;BME280_humidity;BME280_pressure;Samples;Min_cycle;Max_cycle;Signal;HPM_P1;HPM_P2
2022/12/26 00:02:04;;;;;;;;;;;11.50;99.90;;;;;;5009022;28;19929;-77
2022/12/26 00:04:31;;;;;;;;;;;11.70;99.90;;;;;;5025941;28;19931;-80
2022/12/26 00:06:58;;;;;;;;;;;11.60;99.90;;;;;;5030280;28;19932;-78
2022/12/26 00:09:24;;;;;;;;;;;11.60;99.90;;;;;;5022420;28;19929;-79
2022/12/26 00:11:51;;;;;;;;;;;11.60;99.90;;;;;;5022096;28;19925;-81
2022/12/26 00:14:18;;;;;;;;;;;11.60;99.90;;;;;;5023394;28;19929;-78
2022/12/26 00:16:45;;;;;;;;;;;11.60;99.90;;;;;;5019482;28;20016;-79
2022/12/26 00:19:14;;;;;;;;;;;11.60;99.90;;;;;;5017171;28;20354;-80
2022/12/26 00:21:41;;;;;;;;;;;11.60;99.90;;;;;;5019611;28;20306;-79
2022/12/26 00:24:10;;;;;;;;;;;11.60;99.90;;;;;;5006749;28;20481;-79
2022/12/26 00:26:37;;;;;;;;;;;11.60;99.90;;;;;;5013216;28;19937;-78
2022/12/26 00:29:04;;;;;;;;;;;11.50;99.90;;;;;;5013016;28;20000;-77
2022/12/26 00:31:32;;;;;;;;;;;11.70;99.90;;;;;;5020581;28;20024;-79
2022/12/26 00:33:59;;;;;;;;;;;11.50;99.90;;;;;;5011036;28;19929;-79
2022/12/26 00:36:28;;;;;;;;;;;11.50;99.90;;;;;;5015848;28;20007;-78
2022/12/26 00:38:55;;;;;;;;;;;11.50;99.90;;;;;;5013327;28;20025;-79
2022/12/26 00:41:22;;;;;;;;;;;11.40;99.90;;;;;;5012353;28;19926;-78
2022/12/26 00:43:49;;;;;;;;;;;11.50;99.90;;;;;;5017139;28;20028;-79
2022/12/26 00:46:16;;;;;;;;;;;11.50;99.90;;;;;;5007112;28;19925;-77
2022/12/26 00:48:43;;;;;;;;;;;11.50;99.90;;;;;;5008251;28;19929;-78
2022/12/26 00:51:10;;;;;;;;;;;11.50;99.90;;;;;;5012535;28;20453;-78
2022/12/26 00:53:39;;;;;;;;;;;11.50;99.90;;;;;;5022715;28;19929;-79
2022/12/26 00:56:06;;;;;;;;;;;11.60;99.90;;;;;;5017628;28;19936;-78
2022/12/26 00:58:33;;;;;;;;;;;11.60;99.90;;;;;;5021637;28;19948;-77
2022/12/26 01:01:05;;;;;;;;;;;11.60;99.90;;;;;;5005175;28;19937;-78
2022/12/26 01:03:31;;;;;;;;;;;11.60;99.90;;;;;;5011316;28;19929;-78
2022/12/26 01:05:58;;;;;;;;;;;11.60;99.90;;;;;;5021388;28;19943;-78
2022/12/26 01:08:25;;;;;;;;;;;11.60;99.90;;;;;;5028279;28;20494;-77
2022/12/26 01:10:53;;;;;;;;;;;11.60;99.90;;;;;;5023150;28;19929;-80
2022/12/26 01:13:20;;;;;;;;;;;11.60;99.90;;;;;;5023675;28;20365;-78
2022/12/26 01:15:47;;;;;;;;;;;10.80;99.90;;;;;;5016029;28;19929;-77
2022/12/26 01:18:14;;;;;;;;;;;11.60;99.90;;;;;;5020413;28;19929;-80
2022/12/26 01:20:41;;;;;;;;;;;11.60;99.90;;;;;;5012111;28;20426;-78
2022/12/26 01:23:07;;;;;;;;;;;11.60;99.90;;;;;;5012099;28;19936;-78
2022/12/26 01:25:34;;;;;;;;;;;12.40;99.90;;;;;;5012662;28;20318;-78
2022/12/26 01:28:02;;;;;;;;;;;12.20;99.90;;;;;;5010757;28;19930;-78
2022/12/26 01:30:29;;;;;;;;;;;11.60;99.90;;;;;;5011167;28;19949;-77
2022/12/26 01:32:56;;;;;;;;;;;11.60;99.90;;;;;;5016716;28;20409;-79
2022/12/26 01:35:23;;;;;;;;;;;11.60;99.90;;;;;;5011453;28;20270;-78
2022/12/26 01:37:50;;;;;;;;;;;11.60;99.90;;;;;;5021701;28;19964;-76
2022/12/26 01:40:17;;;;;;;;;;;11.60;99.90;;;;;;5027287;28;19936;-78
2022/12/26 01:42:43;;;;;;;;;;;11.60;99.90;;;;;;5025808;28;20457;-77
2022/12/26 01:45:21;;;;;;;;;;;11.60;99.90;;;;;;5018052;28;19929;-77
2022/12/26 01:47:50;;;;;;;;;;;11.60;99.90;;;;;;5021966;28;20370;-79
2022/12/26 01:50:25;;;;;;;;;;;11.60;99.90;;;;;;5011774;28;20023;-79
2022/12/26 01:52:52;;;;;;;;;;;11.60;99.90;;;;;;5012999;28;19929;-78
2022/12/26 01:55:20;;;;;;;;;;;11.60;99.90;;;;;;5014766;28;19929;-78
2022/12/26 01:57:50;;;;;;;;;;;11.60;99.90;;;;;;5022552;28;20562;-77
2022/12/26 02:00:17;;;;;;;;;;;11.60;99.90;;;;;;5022443;28;19935;-78
2022/12/26 02:05:36;;;;;;;;;;;11.70;99.90;;;;;;5009521;28;19929;-76
2022/12/26 02:08:04;;;;;;;;;;;11.60;99.90;;;;;;5030607;28;19913;-80
2022/12/26 02:10:33;;;;;;;;;;;11.60;99.90;;;;;;5034437;28;19924;-80
2022/12/26 02:13:00;;;;;;;;;;;11.60;99.90;;;;;;5016264;28;19929;-76
2022/12/26 02:15:27;;;;;;;;;;;11.70;99.90;;;;;;5535206;22;19935;-76
2022/12/26 02:17:55;;;;;;;;;;;11.00;99.90;;;;;;4996062;28;19933;-76
2022/12/26 02:20:23;;;;;;;;;;;11.70;99.90;;;;;;5015157;28;19933;-77
2022/12/26 02:23:22;;;;;;;;;;;11.60;99.90;;;;;;5020256;28;19933;-77
2022/12/26 02:26:02;;;;;;;;;;;11.70;99.90;;;;;;5012693;28;20424;-77
2022/12/26 02:28:42;;;;;;;;;;;11.60;99.90;;;;;;5014183;23;19929;-78
2022/12/26 02:31:12;;;;;;;;;;;11.70;99.90;;;;;;5043422;28;20299;-78
2022/12/26 02:33:48;;;;;;;;;;;11.60;99.90;;;;;;5040768;28;19925;-78
2022/12/26 02:36:41;;;;;;;;;;;11.60;99.90;;;;;;5015246;28;19929;-77
2022/12/26 02:39:13;;;;;;;;;;;11.60;99.90;;;;;;5018942;28;19929;-77
2022/12/26 02:41:43;;;;;;;;;;;11.50;99.90;;;;;;5030539;28;19932;-77
2022/12/26 02:47:09;;;;;;;;;;;11.50;99.90;;;;;;5035457;28;20003;-77
2022/12/26 03:15:18;;;;;;;;;;;11.50;99.90;;;;;;5050880;28;19990;-77
2022/12/26 03:17:47;;;;;;;;;;;11.40;99.90;;;;;;5031273;28;19929;-77
2022/12/26 03:20:16;;;;;;;;;;;11.40;99.90;;;;;;5030504;28;20315;-77
2022/12/26 03:22:46;;;;;;;;;;;11.40;99.90;;;;;;5020375;28;19944;-76
2022/12/26 03:28:00;;;;;;;;;;;11.30;99.90;;;;;;5039526;28;20424;-76
2022/12/26 03:35:52;;;;;;;;;;;11.30;99.90;;;;;;5027133;28;19940;-78
2022/12/26 03:38:21;;;;;;;;;;;11.30;99.90;;;;;;5037933;28;20643;-78
2022/12/26 04:20:13;;;;;;;;;;;11.20;99.90;;;;;;5045596;28;19920;-79
2022/12/26 04:45:07;;;;;;;;;;;11.00;99.90;;;;;;5043428;28;19983;-79
2022/12/26 04:47:34;;;;;;;;;;;11.00;99.90;;;;;;5049982;28;20347;-80
2022/12/26 04:50:13;;;;;;;;;;;11.00;99.90;;;;;;5030516;28;19932;-80
2022/12/26 04:52:57;;;;;;;;;;;11.00;99.90;;;;;;5049208;28;20323;-79
2022/12/26 04:55:24;;;;;;;;;;;11.00;99.90;;;;;;5031796;28;19971;-80
2022/12/26 04:57:51;;;;;;;;;;;11.00;99.90;;;;;;5041208;28;19929;-79
2022/12/26 05:00:20;;;;;;;;;;;11.00;99.90;;;;;;5029901;28;20020;-79
2022/12/26 05:11:08;;;;;;;;;;;10.90;99.90;;;;;;5035461;28;20019;-79
2022/12/26 05:13:35;;;;;;;;;;;10.90;99.90;;;;;;5043821;28;20472;-79
2022/12/26 05:29:45;;;;;;;;;;;10.90;99.90;;;;;;5041864;28;20364;-79
2022/12/26 05:32:23;;;;;;;;;;;;;;;;;;;;;
2022/12/26 05:34:50;;;;;;;;;;;10.90;99.90;;;;;;5047281;28;19970;-78
2022/12/26 05:37:17;;;;;;;;;;;10.90;99.90;;;;;;5023992;28;20297;-79
2022/12/26 05:39:44;;;;;;;;;;;10.90;99.90;;;;;;5036669;28;19929;-80
2022/12/26 05:42:11;;;;;;;;;;;10.90;99.90;;;;;;5022751;28;20018;-79
2022/12/26 05:44:38;;;;;;;;;;;10.90;99.90;;;;;;5027742;28;19932;-80
2022/12/26 05:47:05;;;;;;;;;;;10.90;99.90;;;;;;5029295;28;19929;-80
2022/12/26 05:49:33;;;;;;;;;;;10.90;99.90;;;;;;5051201;28;20281;-79
2022/12/26 05:52:00;;;;;;;;;;;10.90;99.90;;;;;;5046772;28;19936;-80
2022/12/26 05:54:27;;;;;;;;;;;10.90;99.90;;;;;;5040379;28;20325;-79
2022/12/26 05:56:54;;;;;;;;;;;10.90;99.90;;;;;;5035174;28;19947;-78
2022/12/26 05:59:21;;;;;;;;;;;10.90;99.90;;;;;;5030068;28;19932;-80
2022/12/26 06:01:48;;;;;;;;;;;10.80;99.90;;;;;;5023006;28;19929;-78
2022/12/26 06:04:15;;;;;;;;;;;10.80;99.90;;;;;;5028573;28;20019;-80
2022/12/26 06:06:46;;;;;;;;;;;10.80;99.90;;;;;;5055641;28;19925;-80
2022/12/26 06:09:13;;;;;;;;;;;10.80;99.90;;;;;;5044851;28;19929;-81
2022/12/26 06:11:40;;;;;;;;;;;10.70;99.90;;;;;;5027433;28;20462;-82
2022/12/26 06:14:08;;;;;;;;;;;10.80;99.90;;;;;;5045512;28;19913;-81
2022/12/26 06:16:35;;;;;;;;;;;10.70;99.90;;;;;;5051493;28;19932;-83
2022/12/26 06:19:02;;;;;;;;;;;10.60;99.90;;;;;;5045165;28;19945;-82
2022/12/26 06:21:29;;;;;;;;;;;10.60;99.90;;;;;;5026508;28;19925;-82
2022/12/26 06:23:58;;;;;;;;;;;10.60;99.90;;;;;;5036639;28;19932;-83
2022/12/26 06:26:25;;;;;;;;;;;10.50;99.90;;;;;;5030368;28;19929;-83
2022/12/26 06:28:52;;;;;;;;;;;10.50;99.90;;;;;;5027779;28;20344;-84
2022/12/26 06:31:20;;;;;;;;;;;10.40;99.90;;;;;;5046052;28;19932;-81
2022/12/26 06:33:47;;;;;;;;;;;10.40;99.90;;;;;;5035743;28;19929;-79
2022/12/26 06:36:16;;;;;;;;;;;10.30;99.90;;;;;;5032573;28;19925;-78
2022/12/26 06:38:43;;;;;;;;;;;10.30;99.90;;;;;;5044923;28;19936;-78
2022/12/26 06:41:12;;;;;;;;;;;10.30;99.90;;;;;;5055451;28;19932;-78
2022/12/26 06:43:39;;;;;;;;;;;10.30;99.90;;;;;;5041822;28;19928;-78
2022/12/26 06:46:07;;;;;;;;;;;10.30;99.90;;;;;;5045864;28;19936;-78
2022/12/26 06:48:38;;;;;;;;;;;10.30;99.90;;;;;;5042985;28;19928;-79
2022/12/26 06:51:05;;;;;;;;;;;10.30;99.90;;;;;;5044050;28;19936;-79
2022/12/26 06:53:33;;;;;;;;;;;10.30;99.90;;;;;;5031922;28;20363;-77
2022/12/26 06:56:05;;;;;;;;;;;10.30;99.90;;;;;;5043418;28;20392;-77
2022/12/26 06:58:34;;;;;;;;;;;10.30;99.90;;;;;;5033679;28;19925;-76
2022/12/26 07:01:03;;;;;;;;;;;10.30;99.90;;;;;;5030720;28;19929;-77
2022/12/26 07:03:30;;;;;;;;;;;10.40;99.90;;;;;;5038625;28;19949;-77
2022/12/26 07:06:01;;;;;;;;;;;10.40;99.90;;;;;;5043030;28;20019;-76
2022/12/26 07:08:29;;;;;;;;;;;10.40;99.90;;;;;;5046199;28;19929;-77
2022/12/26 07:10:56;;;;;;;;;;;10.50;99.90;;;;;;5031919;28;19952;-77
2022/12/26 07:13:23;;;;;;;;;;;10.50;99.90;;;;;;5048722;28;19931;-78
2022/12/26 07:15:51;;;;;;;;;;;10.50;99.90;;;;;;5045258;28;20355;-78
2022/12/26 07:18:18;;;;;;;;;;;10.50;99.90;;;;;;5036208;28;20021;-78
2022/12/26 07:20:45;;;;;;;;;;;10.60;99.90;;;;;;5036091;28;20387;-78
2022/12/26 07:23:12;;;;;;;;;;;10.50;99.90;;;;;;5035537;28;19925;-78
2022/12/26 07:25:40;;;;;;;;;;;10.50;99.90;;;;;;5049654;28;19935;-78
2022/12/26 07:28:07;;;;;;;;;;;11.40;99.90;;;;;;5034483;28;19925;-77
2022/12/26 07:30:34;;;;;;;;;;;10.50;99.90;;;;;;5033115;28;19965;-77
2022/12/26 07:33:02;;;;;;;;;;;10.60;99.90;;;;;;5038037;28;19924;-78
2022/12/26 07:35:29;;;;;;;;;;;10.50;99.90;;;;;;5038028;28;20007;-78
2022/12/26 07:37:56;;;;;;;;;;;10.50;99.90;;;;;;5035338;28;19943;-79
2022/12/26 07:40:24;;;;;;;;;;;10.60;99.90;;;;;;5033491;28;19936;-78
2022/12/26 07:42:52;;;;;;;;;;;10.50;99.90;;;;;;5018612;28;19925;-78
2022/12/26 07:45:20;;;;;;;;;;;10.50;99.90;;;;;;5034809;28;20385;-79
2022/12/26 07:47:46;;;;;;;;;;;10.60;99.90;;;;;;5025870;28;19933;-79
2022/12/26 07:50:15;;;;;;;;;;;10.60;99.90;;;;;;5032848;28;19944;-78
2022/12/26 07:52:42;;;;;;;;;;;10.70;99.90;;;;;;5046979;28;19933;-78
2022/12/26 07:55:09;;;;;;;;;;;10.70;99.90;;;;;;5052111;28;20480;-78
2022/12/26 07:57:36;;;;;;;;;;;10.80;99.90;;;;;;5028264;28;19929;-78
2022/12/26 08:00:04;;;;;;;;;;;10.80;99.90;;;;;;5024009;28;19933;-78
2022/12/26 08:02:38;;;;;;;;;;;10.80;99.90;;;;;;5050202;28;19956;-80
2022/12/26 08:05:06;;;;;;;;;;;10.90;99.90;;;;;;5054232;28;19929;-80
2022/12/26 08:07:35;;;;;;;;;;;10.90;99.90;;;;;;5052375;28;20630;-80
2022/12/26 08:10:02;;;;;;;;;;;10.90;99.90;;;;;;5034113;28;19936;-80
2022/12/26 08:12:29;;;;;;;;;;;11.00;99.90;;;;;;5050489;28;19935;-83
2022/12/26 08:14:56;;;;;;;;;;;11.00;99.90;;;;;;5041124;28;19933;-81
2022/12/26 08:17:23;;;;;;;;;;;11.00;99.90;;;;;;5028531;28;19940;-80
2022/12/26 08:19:50;;;;;;;;;;;11.00;99.90;;;;;;5044745;28;19932;-82
2022/12/26 08:22:16;;;;;;;;;;;11.10;99.90;;;;;;5048535;28;20396;-84
2022/12/26 08:24:45;;;;;;;;;;;11.10;99.90;;;;;;5053297;28;19925;-84
2022/12/26 08:27:12;;;;;;;;;;;11.10;99.90;;;;;;5028807;28;19929;-84
2022/12/26 08:29:38;;;;;;;;;;;11.10;99.90;;;;;;5051634;28;19982;-80
2022/12/26 08:32:05;;;;;;;;;;;11.20;99.90;;;;;;5046788;28;19932;-82
2022/12/26 08:34:33;;;;;;;;;;;11.20;99.90;;;;;;5049561;28;19929;-81
2022/12/26 08:37:00;;;;;;;;;;;11.20;99.90;;;;;;5047361;28;20230;-82
2022/12/26 08:39:27;;;;;;;;;;;11.20;99.90;;;;;;5053779;28;19933;-82
2022/12/26 08:41:55;;;;;;;;;;;11.20;99.90;;;;;;5025555;28;19940;-81
2022/12/26 08:44:22;;;;;;;;;;;11.20;99.90;;;;;;5037610;28;19935;-82
2022/12/26 08:46:50;;;;;;;;;;;11.20;99.90;;;;;;5020567;28;19925;-82
2022/12/26 08:49:17;;;;;;;;;;;11.00;99.90;;;;;;5026280;28;19932;-83
2022/12/26 08:51:44;;;;;;;;;;;11.20;99.90;;;;;;5027231;28;20308;-83
2022/12/26 08:54:11;;;;;;;;;;;11.20;99.90;;;;;;5059744;28;19928;-83
2022/12/26 08:56:37;;;;;;;;;;;11.20;99.90;;;;;;5043447;28;19929;-83
2022/12/26 08:59:06;;;;;;;;;;;11.20;99.90;;;;;;5027033;28;19932;-82
2022/12/26 09:01:33;;;;;;;;;;;11.20;99.90;;;;;;5036499;28;19933;-83
2022/12/26 09:04:03;;;;;;;;;;;11.20;99.90;;;;;;5044623;28;19932;-83
2022/12/26 09:06:31;;;;;;;;;;;11.20;99.90;;;;;;5044310;28;19948;-82
2022/12/26 09:08:59;;;;;;;;;;;11.10;99.90;;;;;;5034440;28;19925;-82
2022/12/26 09:11:26;;;;;;;;;;;11.10;99.90;;;;;;5045698;28;19948;-83
2022/12/26 09:13:54;;;;;;;;;;;11.10;99.90;;;;;;5038495;28;19976;-82
2022/12/26 09:16:23;;;;;;;;;;;11.10;99.90;;;;;;5045094;28;19936;-81
2022/12/26 09:18:53;;;;;;;;;;;11.10;99.90;;;;;;5036173;28;19929;-82
2022/12/26 09:21:21;;;;;;;;;;;11.10;99.90;;;;;;5056779;28;20277;-84
2022/12/26 09:23:48;;;;;;;;;;;11.10;99.90;;;;;;5032446;28;19929;-82
2022/12/26 09:26:16;;;;;;;;;;;11.10;99.90;;;;;;5047162;28;19929;-80
2022/12/26 09:28:44;;;;;;;;;;;11.10;99.90;;;;;;5063349;28;19934;-81
2022/12/26 09:31:12;;;;;;;;;;;11.10;99.90;;;;;;5040644;28;19971;-80
2022/12/26 09:33:41;;;;;;;;;;;11.20;99.90;;;;;;5061410;28;19929;-81
2022/12/26 09:36:09;;;;;;;;;;;11.20;99.90;;;;;;5031003;28;19925;-81
2022/12/26 09:38:36;;;;;;;;;;;11.30;99.90;;;;;;5036410;28;19929;-81
2022/12/26 09:41:10;;;;;;;;;;;11.30;99.90;;;;;;5029513;28;19932;-81
2022/12/26 09:43:48;;;;;;;;;;;11.30;99.90;;;;;;5027553;28;19960;-80
2022/12/26 09:46:18;;;;;;;;;;;11.40;99.90;;;;;;5027249;28;19944;-79
2022/12/26 09:48:52;;;;;;;;;;;11.50;99.90;;;;;;5036682;28;19991;-81
2022/12/26 09:51:19;;;;;;;;;;;11.60;99.90;;;;;;5047194;28;19990;-81
2022/12/26 09:53:46;;;;;;;;;;;11.60;99.90;;;;;;5036534;28;19928;-79
2022/12/26 09:56:15;;;;;;;;;;;11.70;99.90;;;;;;5038213;28;19936;-80
2022/12/26 09:58:44;;;;;;;;;;;11.80;99.90;;;;;;5034778;28;19983;-80
2022/12/26 10:01:13;;;;;;;;;;;11.80;99.90;;;;;;5042976;28;19925;-79
2022/12/26 10:03:42;;;;;;;;;;;11.90;99.90;;;;;;5028671;28;20015;-79
2022/12/26 10:06:13;;;;;;;;;;;12.00;99.90;;;;;;5048759;28;20015;-79
2022/12/26 10:08:46;;;;;;;;;;;12.00;99.90;;;;;;5046023;28;20335;-80
2022/12/26 10:11:17;;;;;;;;;;;12.10;99.90;;;;;;5031170;28;19978;-82
2022/12/26 10:13:47;;;;;;;;;;;12.10;99.90;;;;;;5034759;28;19978;-81
2022/12/26 10:16:20;;;;;;;;;;;12.20;99.90;;;;;;5030971;28;19928;-83
2022/12/26 10:18:53;;;;;;;;;;;12.20;99.90;;;;;;5045319;28;20449;-79
2022/12/26 10:21:29;;;;;;;;;;;12.20;99.90;;;;;;5059976;28;19925;-80
2022/12/26 10:24:01;;;;;;;;;;;12.30;99.90;;;;;;5048076;28;19935;-78
2022/12/26 10:26:30;;;;;;;;;;;12.30;99.90;;;;;;5048582;28;20513;-79
2022/12/26 10:29:00;;;;;;;;;;;12.20;99.90;;;;;;5031235;28;19933;-81
2022/12/26 10:31:29;;;;;;;;;;;12.20;99.90;;;;;;5048776;28;19964;-79
2022/12/26 10:34:00;;;;;;;;;;;12.20;99.90;;;;;;5041351;28;19929;-80
2022/12/26 10:36:33;;;;;;;;;;;12.20;99.90;;;;;;5053296;28;19929;-81
2022/12/26 10:39:01;;;;;;;;;;;12.30;99.90;;;;;;5049435;28;19943;-83
2022/12/26 10:41:32;;;;;;;;;;;12.40;99.90;;;;;;5046780;28;19952;-80
2022/12/26 10:44:00;;;;;;;;;;;12.40;99.90;;;;;;5050822;28;19929;-82
2022/12/26 10:46:45;;;;;;;;;;;12.50;99.90;;;;;;5048442;28;19929;-81
2022/12/26 10:49:14;;;;;;;;;;;12.60;99.90;;;;;;5053901;28;20008;-82
2022/12/26 10:51:43;;;;;;;;;;;12.70;99.90;;;;;;5048128;28;19925;-79
2022/12/26 10:54:15;;;;;;;;;;;12.60;99.90;;;;;;5026019;28;20396;-79
2022/12/26 10:56:42;;;;;;;;;;;12.60;99.90;;;;;;5034918;28;19928;-80
2022/12/26 10:59:13;;;;;;;;;;;12.70;99.90;;;;;;5042541;28;20312;-80
2022/12/26 11:01:46;;;;;;;;;;;12.80;99.90;;;;;;5047459;28;19929;-80
2022/12/26 11:04:17;;;;;;;;;;;12.90;99.90;;;;;;5045295;28;19929;-79
2022/12/26 11:06:50;;;;;;;;;;;13.10;99.90;;;;;;5048173;28;19952;-80
2022/12/26 11:09:34;;;;;;;;;;;13.20;99.90;;;;;;5050504;28;20307;-78
2022/12/26 11:12:02;;;;;;;;;;;13.30;99.90;;;;;;5028106;28;19937;-82
2022/12/26 11:14:34;;;;;;;;;;;13.50;99.90;;;;;;5033198;28;19936;-82
2022/12/26 11:17:03;;;;;;;;;;;13.60;99.90;;;;;;5042085;28;19925;-80
2022/12/26 11:19:35;;;;;;;;;;;13.70;99.90;;;;;;5044734;28;19937;-79
2022/12/26 11:22:22;;;;;;;;;;;13.60;99.90;;;;;;5030142;28;19940;-80
2022/12/26 11:25:08;;;;;;;;;;;13.60;99.90;;;;;;5046351;28;19947;-79
2022/12/26 11:27:35;;;;;;;;;;;13.50;99.90;;;;;;5033543;28;19940;-83
2022/12/26 11:30:23;;;;;;;;;;;13.40;99.90;;;;;;5031278;28;19933;-80
2022/12/26 11:32:51;;;;;;;;;;;13.30;99.90;;;;;;5043979;28;19929;-80
2022/12/26 11:35:19;;;;;;;;;;;13.30;99.90;;;;;;5037026;28;19928;-81
2022/12/26 11:37:51;;;;;;;;;;;13.20;99.90;;;;;;5039085;28;20377;-79
2022/12/26 11:40:19;;;;;;;;;;;13.20;99.90;;;;;;5019760;28;19940;-80
2022/12/26 11:42:48;;;;;;;;;;;13.10;99.90;;;;;;5019878;28;20337;-82
2022/12/26 11:45:20;;;;;;;;;;;13.00;99.90;;;;;;5029141;28;19929;-82
2022/12/26 11:47:47;;;;;;;;;;;12.90;99.90;;;;;;5025365;28;19925;-82
2022/12/26 11:50:20;;;;;;;;;;;12.80;99.90;;;;;;5045472;28;19936;-87
2022/12/26 11:52:52;;;;;;;;;;;12.80;99.90;;;;;;5046462;28;20015;-85
2022/12/26 11:55:25;;;;;;;;;;;12.90;99.90;;;;;;5028078;28;19987;-84
2022/12/26 11:57:55;;;;;;;;;;;12.90;99.90;;;;;;5023463;28;19929;-87
2022/12/26 12:00:23;;;;;;;;;;;12.90;99.90;;;;;;5028695;28;19929;-86
2022/12/26 12:02:50;;;;;;;;;;;12.90;99.90;;;;;;5026150;28;19929;-86
2022/12/26 12:05:24;;;;;;;;;;;12.90;99.90;;;;;;5037562;28;19935;-83
2022/12/26 12:08:15;;;;;;;;;;;12.90;99.90;;;;;;5035319;28;19928;-84
2022/12/26 12:10:54;;;;;;;;;;;13.00;99.90;;;;;;5038713;28;19983;-84
2022/12/26 12:13:42;;;;;;;;;;;13.10;99.90;;;;;;5043253;28;19929;-85
2022/12/26 12:16:14;;;;;;;;;;;13.00;99.90;;;;;;5039901;28;20388;-85
2022/12/26 12:18:48;;;;;;;;;;;12.90;99.90;;;;;;5041413;28;19928;-83
2022/12/26 12:21:20;;;;;;;;;;;12.90;99.90;;;;;;5041637;28;19925;-84
2022/12/26 12:23:54;;;;;;;;;;;12.50;99.90;;;;;;5029570;28;19925;-83
2022/12/26 12:26:26;;;;;;;;;;;12.70;99.90;;;;;;5027654;28;19933;-84
2022/12/26 12:29:03;;;;;;;;;;;12.60;99.90;;;;;;5042021;28;19932;-82
2022/12/26 12:31:35;;;;;;;;;;;12.50;99.90;;;;;;5028518;28;19929;-85
2022/12/26 12:34:07;;;;;;;;;;;12.40;99.90;;;;;;5042826;28;19929;-84
2022/12/26 12:36:36;;;;;;;;;;;12.40;99.90;;;;;;5033198;28;19929;-83
2022/12/26 12:39:09;;;;;;;;;;;12.30;99.90;;;;;;5041988;28;19961;-82
2022/12/26 12:41:45;;;;;;;;;;;11.90;99.90;;;;;;5024080;28;20403;-83
2022/12/26 12:44:13;;;;;;;;;;;11.80;99.90;;;;;;5026730;28;19925;-83
2022/12/26 12:46:56;;;;;;;;;;;11.70;99.90;;;;;;5019947;28;19929;-84
2022/12/26 12:49:31;;;;;;;;;;;11.40;99.90;;;;;;5044860;28;19952;-82
2022/12/26 12:52:02;;;;;;;;;;;11.30;99.90;;;;;;5047810;28;19924;-84
2022/12/26 12:54:40;;;;;;;;;;;11.30;99.90;;;;;;5036813;28;20029;-82
2022/12/26 12:57:13;;;;;;;;;;;11.30;99.90;;;;;;5035123;28;19978;-84
2022/12/26 12:59:46;;;;;;;;;;;11.30;99.90;;;;;;5045404;28;19936;-85
2022/12/26 13:02:19;;;;;;;;;;;11.40;99.90;;;;;;5035456;28;20666;-83
2022/12/26 13:04:49;;;;;;;;;;;11.20;99.90;;;;;;5053191;28;19947;-82
2022/12/26 13:07:21;;;;;;;;;;;11.20;99.90;;;;;;5050065;28;19925;-84
2022/12/26 13:09:51;;;;;;;;;;;11.10;99.90;;;;;;5041827;28;20162;-82
2022/12/26 13:12:21;;;;;;;;;;;11.10;99.90;;;;;;5031363;28;19964;-82
2022/12/26 13:14:48;;;;;;;;;;;10.90;99.90;;;;;;5038326;28;19936;-84
2022/12/26 13:17:17;;;;;;;;;;;10.90;99.90;;;;;;5044961;28;19929;-86
2022/12/26 13:19:48;;;;;;;;;;;10.80;99.90;;;;;;5028400;28;20242;-83
2022/12/26 13:22:23;;;;;;;;;;;10.80;99.90;;;;;;5051772;28;19929;-84
2022/12/26 13:24:56;;;;;;;;;;;10.80;99.90;;;;;;5036913;28;19928;-84
2022/12/26 13:27:25;;;;;;;;;;;10.80;99.90;;;;;;5035729;28;19952;-81
2022/12/26 13:29:52;;;;;;;;;;;10.70;99.90;;;;;;5035364;28;20454;-84
2022/12/26 13:32:21;;;;;;;;;;;10.80;99.90;;;;;;5035258;28;19979;-84
2022/12/26 13:34:48;;;;;;;;;;;10.80;99.90;;;;;;5046494;28;19928;-84
2022/12/26 13:37:34;;;;;;;;;;;10.70;99.90;;;;;;5037267;28;19925;-83
2022/12/26 13:40:06;;;;;;;;;;;10.80;99.90;;;;;;5024265;28;19963;-83
2022/12/26 13:45:37;;;;;;;;;;;10.70;99.90;;;;;;5040018;28;19936;-84
2022/12/26 13:48:34;;;;;;;;;;;10.60;99.90;;;;;;5045426;28;19925;-89
2022/12/26 13:51:03;;;;;;;;;;;10.50;99.90;;;;;;5053574;28;19929;-85
2022/12/26 13:53:31;;;;;;;;;;;10.50;99.90;;;;;;5052183;28;19936;-86
2022/12/26 13:55:59;;;;;;;;;;;10.40;99.90;;;;;;5050606;28;19939;-85
2022/12/26 13:58:35;;;;;;;;;;;10.40;99.90;;;;;;5049268;28;19935;-88
2022/12/26 14:01:05;;;;;;;;;;;10.30;99.90;;;;;;5044923;28;20245;-84
2022/12/26 14:03:46;;;;;;;;;;;10.30;99.90;;;;;;5029276;28;20116;-83
2022/12/26 14:06:24;;;;;;;;;;;10.30;99.90;;;;;;5025220;28;20026;-84
2022/12/26 14:09:05;;;;;;;;;;;10.20;99.90;;;;;;5046802;28;19929;-80
2022/12/26 14:11:40;;;;;;;;;;;9.80;99.90;;;;;;5059230;28;19936;-81
2022/12/26 14:14:11;;;;;;;;;;;10.30;99.90;;;;;;5052638;28;19929;-80
2022/12/26 14:16:43;;;;;;;;;;;10.20;99.90;;;;;;5045764;28;19951;-81
2022/12/26 14:19:15;;;;;;;;;;;10.30;99.90;;;;;;5049684;28;19982;-81
2022/12/26 14:21:49;;;;;;;;;;;10.30;99.90;;;;;;5031699;28;19996;-81
2022/12/26 14:24:34;;;;;;;;;;;10.20;99.90;;;;;;5051387;28;19952;-81
2022/12/26 14:27:20;;;;;;;;;;;10.20;99.90;;;;;;5047937;28;19929;-80
2022/12/26 14:29:49;;;;;;;;;;;10.10;99.90;;;;;;5038454;28;19929;-80
2022/12/26 14:32:23;;;;;;;;;;;10.10;99.90;;;;;;5060520;28;19936;-80
2022/12/26 14:35:00;;;;;;;;;;;10.00;99.90;;;;;;5030896;28;19961;-80
2022/12/26 14:37:32;;;;;;;;;;;9.90;99.90;;;;;;5052057;28;19929;-81
2022/12/26 14:40:08;;;;;;;;;;;9.80;99.90;;;;;;5036069;28;19948;-81
2022/12/26 14:45:40;;;;;;;;;;;9.70;99.90;;;;;;5050307;28;19921;-81
2022/12/26 14:48:25;;;;;;;;;;;9.60;99.90;;;;;;5050252;28;20373;-80
2022/12/26 14:50:53;;;;;;;;;;;9.60;99.90;;;;;;5026918;28;20502;-80
2022/12/26 14:53:30;;;;;;;;;;;9.50;99.90;;;;;;5056635;28;20015;-80
2022/12/26 14:55:58;;;;;;;;;;;9.60;99.90;;;;;;5043756;28;19960;-81
2022/12/26 14:58:36;;;;;;;;;;;9.50;99.90;;;;;;5046712;28;20548;-82
2022/12/26 15:01:21;;;;;;;;;;;9.50;99.90;;;;;;5022465;28;19932;-80
2022/12/26 15:03:52;;;;;;;;;;;9.50;99.90;;;;;;5025329;28;22236;-82
2022/12/26 15:06:43;;;;;;;;;;;9.50;99.90;;;;;;5052991;28;19933;-83
2022/12/26 15:09:19;;;;;;;;;;;9.40;99.90;;;;;;5045015;28;19935;-82
2022/12/26 15:12:04;;;;;;;;;;;9.40;99.90;;;;;;5040170;28;19932;-82
2022/12/26 15:14:56;;;;;;;;;;;9.30;99.90;;;;;;5059885;28;19991;-82
2022/12/26 15:17:27;;;;;;;;;;;9.30;99.90;;;;;;5041153;28;20223;-82
2022/12/26 15:20:10;;;;;;;;;;;9.20;99.90;;;;;;5049564;28;20392;-83
2022/12/26 15:23:01;;;;;;;;;;;9.20;99.90;;;;;;5048920;28;19925;-83
2022/12/26 15:25:43;;;;;;;;;;;9.10;99.90;;;;;;5037982;28;20007;-82
2022/12/26 15:28:25;;;;;;;;;;;9.10;99.90;;;;;;5050167;28;19940;-82
2022/12/26 15:31:11;;;;;;;;;;;8.90;99.90;;;;;;5054766;28;20026;-82
2022/12/26 15:33:39;;;;;;;;;;;8.90;99.90;;;;;;5053134;28;19971;-83
2022/12/26 15:36:13;;;;;;;;;;;8.70;99.90;;;;;;5041388;28;19948;-82
2022/12/26 15:38:41;;;;;;;;;;;8.60;99.90;;;;;;5036172;28;19933;-82
2022/12/26 15:41:14;;;;;;;;;;;8.50;99.90;;;;;;5037009;28;19929;-82
2022/12/26 15:43:52;;;;;;;;;;;8.50;99.90;;;;;;5039104;28;19933;-82
2022/12/26 15:46:21;;;;;;;;;;;8.50;99.90;;;;;;5037327;28;19936;-82
2022/12/26 15:49:06;;;;;;;;;;;8.30;99.90;;;;;;5048808;28;19929;-82
2022/12/26 15:51:42;;;;;;;;;;;8.30;99.90;;;;;;5031990;28;19929;-81
2022/12/26 15:54:39;;;;;;;;;;;8.20;99.90;;;;;;5044490;28;19929;-81
2022/12/26 15:57:12;;;;;;;;;;;8.10;99.90;;;;;;5054985;28;19947;-83
2022/12/26 15:59:43;;;;;;;;;;;8.10;99.90;;;;;;5042967;28;19925;-86
2022/12/26 16:02:12;;;;;;;;;;;7.90;99.90;;;;;;5019726;28;20537;-82
2022/12/26 16:04:40;;;;;;;;;;;7.80;99.90;;;;;;5030497;28;19952;-82
2022/12/26 16:07:08;;;;;;;;;;;7.70;99.90;;;;;;5031027;28;19925;-82
2022/12/26 16:09:41;;;;;;;;;;;7.60;99.90;;;;;;5046140;28;19979;-81
2022/12/26 16:12:20;;;;;;;;;;;7.60;99.90;;;;;;5044330;28;20455;-81
2022/12/26 16:14:47;;;;;;;;;;;7.50;99.90;;;;;;5029645;28;19928;-82
2022/12/26 16:17:22;;;;;;;;;;;7.40;99.90;;;;;;5027511;28;19931;-81
2022/12/26 16:19:50;;;;;;;;;;;7.40;99.90;;;;;;5024704;28;19928;-82
2022/12/26 16:25:08;;;;;;;;;;;7.40;99.90;;;;;;5049080;28;19932;-80
2022/12/26 16:27:37;;;;;;;;;;;7.40;99.90;;;;;;5041485;28;20090;-80
2022/12/26 16:30:05;;;;;;;;;;;7.40;99.90;;;;;;5046856;28;19925;-80
2022/12/26 16:32:34;;;;;;;;;;;7.40;99.90;;;;;;5027326;28;19925;-80
2022/12/26 16:35:02;;;;;;;;;;;7.40;99.90;;;;;;5031567;28;19979;-80
2022/12/26 16:37:30;;;;;;;;;;;7.40;99.90;;;;;;5065310;28;19932;-80
2022/12/26 16:40:13;;;;;;;;;;;7.40;99.90;;;;;;5046048;28;19982;-80
2022/12/26 16:42:42;;;;;;;;;;;7.50;99.90;;;;;;5049866;28;19925;-80
2022/12/26 16:45:14;;;;;;;;;;;7.50;99.90;;;;;;5035703;28;19992;-79
2022/12/26 16:47:41;;;;;;;;;;;7.40;99.90;;;;;;5036058;28;19932;-80
2022/12/26 16:50:14;;;;;;;;;;;7.30;99.90;;;;;;5052188;28;19925;-80
2022/12/26 16:52:41;;;;;;;;;;;7.20;99.90;;;;;;5024630;28;19929;-81
2022/12/26 16:55:26;;;;;;;;;;;7.20;99.90;;;;;;5057874;28;19924;-83